Time;durP1;ratioP1;P1;durP2;ratioP2;P2;SDS_P1;SDS_P2;PMS_P1;PMS_P2;Temp;Humidity;BMP_temperature;BMP_pressure;BME280_temperature;BME280_humidity;BME280_pressure;Samples;Min_cycle;Max_cycle;Signal;HPM_P1;HPM_P2
2022/08/20 00:00:54;;;;;;;3.40;1.70;;;20.80;99.90;;;;;;5011634;28;20052;-69
2022/08/20 00:03:26;;;;;;;3.65;1.67;;;20.80;99.90;;;;;;5007143;28;20029;-68
2022/08/20 00:06:00;;;;;;;1.63;1.52;;;20.70;99.90;;;;;;5007673;28;20034;-69
2022/08/20 00:08:27;;;;;;;4.00;1.80;;;20.60;99.90;;;;;;5011027;28;20144;-69
2022/08/20 00:10:53;;;;;;;2.95;1.40;;;20.60;99.90;;;;;;5011547;28;20180;-69
2022/08/20 00:13:25;;;;;;;2.50;1.70;;;20.60;99.90;;;;;;5011077;28;20069;-70
2022/08/20 00:15:52;;;;;;;2.13;1.60;;;20.60;99.90;;;;;;5006009;28;20044;-69
2022/08/20 00:18:18;;;;;;;1.77;1.67;;;20.50;99.90;;;;;;4996081;28;20371;-68
2022/08/20 00:20:47;;;;;;;2.35;1.90;;;20.40;99.90;;;;;;5011121;28;20531;-68
2022/08/20 00:23:13;;;;;;;3.92;1.70;;;20.40;99.90;;;;;;5010883;28;20036;-69
2022/08/20 00:25:40;;;;;;;1.83;1.60;;;20.30;99.90;;;;;;5009903;28;20038;-68
2022/08/20 00:28:05;;;;;;;1.42;1.33;;;20.30;99.90;;;;;;5010320;28;20132;-69
2022/08/20 00:30:33;;;;;;;1.83;1.60;;;20.20;99.90;;;;;;5008967;28;20605;-69
2022/08/20 00:33:10;;;;;;;1.77;1.67;;;20.10;99.90;;;;;;5010276;28;20037;-69
2022/08/20 00:35:40;;;;;;;1.60;1.50;;;20.10;99.90;;;;;;5005708;28;20050;-69
2022/08/20 00:38:06;;;;;;;1.60;1.50;;;20.00;99.90;;;;;;5013934;28;20034;-70
2022/08/20 00:40:35;;;;;;;1.92;1.77;;;19.90;99.90;;;;;;4995671;28;20034;-68
2022/08/20 00:43:04;;;;;;;3.35;1.60;;;19.90;99.90;;;;;;5010514;28;20030;-69
2022/08/20 00:45:33;;;;;;;1.60;1.50;;;19.90;99.90;;;;;;5010284;28;20703;-69
2022/08/20 00:47:59;;;;;;;2.50;1.52;;;19.80;99.90;;;;;;5011693;28;20455;-69
2022/08/20 00:50:33;;;;;;;1.40;1.30;;;19.90;99.90;;;;;;5008887;28;20044;-69
2022/08/20 00:53:01;;;;;;;2.00;1.35;;;19.80;99.90;;;;;;5011138;28;20025;-68
2022/08/20 00:55:29;;;;;;;2.13;1.00;;;19.80;99.90;;;;;;5010392;28;20030;-68
2022/08/20 00:57:58;;;;;;;2.22;1.38;;;19.80;99.90;;;;;;5009029;28;20065;-68
2022/08/20 01:00:38;;;;;;;1.52;1.33;;;19.90;99.90;;;;;;5003366;28;20501;-69
2022/08/20 01:03:08;;;;;;;1.70;1.42;;;19.90;99.90;;;;;;5011481;28;20081;-69
2022/08/20 01:05:35;;;;;;;1.38;1.27;;;19.90;99.90;;;;;;5005259;28;20607;-69
2022/08/20 01:08:01;;;;;;;2.35;1.30;;;19.90;99.90;;;;;;5009688;28;20466;-68
2022/08/20 01:10:33;;;;;;;1.98;1.10;;;19.90;99.90;;;;;;5010027;28;20075;-68
2022/08/20 01:13:02;;;;;;;1.45;1.40;;;19.90;99.90;;;;;;5011043;28;20164;-68
2022/08/20 01:15:30;;;;;;;1.47;1.37;;;19.90;99.90;;;;;;4996233;28;20026;-69
2022/08/20 01:17:57;;;;;;;1.40;1.30;;;20.00;99.90;;;;;;5003493;28;20319;-69
2022/08/20 01:21:01;;;;;;;1.45;1.33;;;20.00;99.90;;;;;;5010215;28;20049;-68
2022/08/20 01:23:46;;;;;;;1.50;1.40;;;20.00;99.90;;;;;;4930242;29;20172;-68
2022/08/20 01:26:23;;;;;;;3.33;1.48;;;20.00;99.90;;;;;;5001602;28;20034;-68
2022/08/20 01:29:02;;;;;;;1.42;1.33;;;20.10;99.90;;;;;;5008146;28;20061;-69
2022/08/20 01:31:32;;;;;;;1.58;1.30;;;20.10;99.90;;;;;;5003231;28;20030;-69
2022/08/20 01:34:00;;;;;;;1.45;1.35;;;20.10;99.90;;;;;;5012846;28;20029;-70
2022/08/20 01:36:40;;;;;;;1.67;1.27;;;20.10;99.90;;;;;;5008122;28;20080;-69
2022/08/20 01:39:12;;;;;;;;;;;20.10;99.90;;;;;;5014369;28;20026;-69
2022/08/20 01:41:44;;;;;;;3.03;1.58;;;20.10;99.90;;;;;;5011095;28;19924;-68
2022/08/20 01:44:11;;;;;;;2.42;1.23;;;20.20;99.90;;;;;;5014195;28;20374;-68
2022/08/20 01:46:40;;;;;;;1.30;1.20;;;20.30;99.90;;;;;;5009239;28;20033;-69
2022/08/20 01:49:15;;;;;;;1.40;1.15;;;20.30;99.90;;;;;;5013868;28;20137;-68
2022/08/20 01:51:41;;;;;;;1.75;1.17;;;20.20;99.90;;;;;;5014235;28;20061;-68
2022/08/20 01:54:07;;;;;;;1.42;1.20;;;20.20;99.90;;;;;;5014552;28;20034;-69
2022/08/20 01:56:34;;;;;;;1.65;1.20;;;20.20;99.90;;;;;;5003459;28;20072;-69
2022/08/20 01:59:05;;;;;;;1.77;1.40;;;20.20;99.90;;;;;;5013613;28;20113;-69
2022/08/20 02:01:39;;;;;;;4.13;1.45;;;20.20;99.90;;;;;;5012866;28;20057;-69
2022/08/20 02:04:09;;;;;;;1.20;1.13;;;20.20;99.90;;;;;;5014020;28;20382;-69
2022/08/20 02:06:39;;;;;;;1.10;1.10;;;20.20;99.90;;;;;;5006191;28;20025;-69
2022/08/20 02:09:06;;;;;;;1.70;1.60;;;20.20;99.90;;;;;;5013148;28;20038;-69
2022/08/20 02:11:33;;;;;;;2.13;1.35;;;20.20;99.90;;;;;;5013060;28;20037;-69
2022/08/20 02:14:00;;;;;;;2.00;1.35;;;20.20;99.90;;;;;;5012549;28;20421;-69
2022/08/20 02:16:30;;;;;;;1.60;1.30;;;20.20;99.90;;;;;;5008169;28;20022;-68
2022/08/20 02:19:00;;;;;;;1.43;1.37;;;20.20;99.90;;;;;;5013224;28;20121;-68
2022/08/20 02:21:30;;;;;;;1.45;1.35;;;20.20;99.90;;;;;;5012553;28;20686;-67
2022/08/20 02:23:56;;;;;;;2.33;1.45;;;20.10;99.90;;;;;;5013120;28;20040;-67
2022/08/20 02:26:22;;;;;;;2.05;1.02;;;20.20;99.90;;;;;;5009483;28;20042;-67
2022/08/20 02:28:50;;;;;;;1.15;1.10;;;20.10;99.90;;;;;;5013041;28;20072;-67
2022/08/20 02:31:18;;;;;;;1.50;1.20;;;20.10;99.90;;;;;;5003552;28;20124;-68
2022/08/20 02:33:44;;;;;;;1.27;1.20;;;20.00;99.90;;;;;;5028453;28;20390;-68
2022/08/20 02:36:11;;;;;;;1.38;1.27;;;20.00;99.90;;;;;;5013117;28;20033;-68
2022/08/20 02:38:39;;;;;;;1.38;1.27;;;20.10;99.90;;;;;;5012787;28;20101;-68
2022/08/20 02:41:06;;;;;;;1.67;1.20;;;20.00;99.90;;;;;;5013293;28;20044;-68
2022/08/20 02:43:32;;;;;;;4.70;1.75;;;20.00;99.90;;;;;;4995962;28;20481;-68
2022/08/20 02:45:58;;;;;;;1.00;1.00;;;20.00;99.90;;;;;;5022099;28;20030;-68
2022/08/20 02:48:25;;;;;;;1.33;1.23;;;20.00;99.90;;;;;;5012167;28;20080;-67
2022/08/20 02:50:53;;;;;;;1.30;1.20;;;20.00;99.90;;;;;;5013056;28;20390;-68
2022/08/20 02:53:19;;;;;;;1.13;1.02;;;20.00;99.90;;;;;;5012448;28;20030;-67
2022/08/20 02:55:45;;;;;;;1.73;1.40;;;20.00;99.90;;;;;;5012960;28;20375;-69
2022/08/20 02:58:11;;;;;;;1.67;1.58;;;20.00;99.90;;;;;;5005311;28;20025;-69
2022/08/20 03:00:36;;;;;;;2.88;1.75;;;19.90;99.90;;;;;;5015444;28;20041;-69
2022/08/20 03:03:03;;;;;;;1.80;1.30;;;19.90;99.90;;;;;;5016720;28;20026;-69
2022/08/20 03:05:28;;;;;;;4.78;1.55;;;19.90;99.90;;;;;;5004176;28;20109;-70
2022/08/20 03:07:55;;;;;;;1.55;1.30;;;20.00;99.90;;;;;;5012825;28;20152;-68
2022/08/20 03:10:29;;;;;;;1.60;1.25;;;19.90;99.90;;;;;;5015616;28;20046;-69
2022/08/20 03:12:54;;;;;;;2.08;1.20;;;19.90;99.90;;;;;;5012781;28;20529;-69
2022/08/20 03:15:20;;;;;;;1.50;1.35;;;19.90;99.90;;;;;;5011704;28;20109;-69
2022/08/20 03:17:46;;;;;;;2.38;1.58;;;19.90;99.90;;;;;;5013078;28;20201;-69
2022/08/20 03:20:13;;;;;;;1.17;1.17;;;19.80;99.90;;;;;;5010598;28;20045;-69
2022/08/20 03:22:39;;;;;;;1.70;1.58;;;19.80;99.90;;;;;;5011640;28;20560;-69
2022/08/20 03:25:06;;;;;;;1.30;1.20;;;19.70;99.90;;;;;;5011335;28;20080;-69
2022/08/20 03:27:31;;;;;;;1.67;1.48;;;19.70;99.90;;;;;;5004481;28;20368;-69
2022/08/20 03:29:57;;;;;;;1.45;1.35;;;19.70;99.90;;;;;;5009321;28;20133;-69
2022/08/20 03:32:23;;;;;;;1.67;1.42;;;19.60;99.90;;;;;;5007619;28;20415;-68
2022/08/20 03:34:48;;;;;;;1.40;1.30;;;19.60;99.90;;;;;;5008496;28;20356;-69
2022/08/20 03:37:14;;;;;;;4.15;1.48;;;19.60;99.90;;;;;;5009280;28;20057;-68
2022/08/20 03:39:39;;;;;;;1.48;1.38;;;19.60;99.90;;;;;;5007217;28;20759;-69
2022/08/20 03:42:06;;;;;;;2.55;1.85;;;19.50;99.90;;;;;;5008239;28;20084;-69
2022/08/20 03:44:31;;;;;;;1.60;1.50;;;19.50;99.90;;;;;;5006422;28;20108;-69
2022/08/20 03:46:57;;;;;;;1.40;1.30;;;19.50;99.90;;;;;;5011182;28;20212;-69
2022/08/20 03:49:23;;;;;;;2.05;1.40;;;19.60;99.90;;;;;;5007499;28;20026;-68
2022/08/20 03:51:50;;;;;;;1.73;1.60;;;19.60;99.90;;;;;;5007727;28;20113;-69
2022/08/20 03:54:16;;;;;;;2.90;1.30;;;19.60;99.90;;;;;;5002342;28;20026;-69
2022/08/20 03:56:41;;;;;;;1.88;1.60;;;19.60;99.90;;;;;;5004892;28;20022;-69
2022/08/20 03:59:07;;;;;;;3.08;1.30;;;19.60;99.90;;;;;;5003347;28;20033;-70
2022/08/20 04:01:33;;;;;;;1.50;1.40;;;19.60;99.90;;;;;;5006549;28;20078;-69
2022/08/20 04:04:00;;;;;;;2.17;1.92;;;19.60;99.90;;;;;;5004320;28;20021;-69
2022/08/20 04:06:28;;;;;;;1.70;1.60;;;19.60;99.90;;;;;;5006321;28;20088;-68
2022/08/20 04:08:54;;;;;;;1.73;1.63;;;19.60;99.90;;;;;;5006951;28;20037;-69
2022/08/20 04:11:20;;;;;;;1.73;1.42;;;19.70;99.90;;;;;;5004273;28;20041;-68
2022/08/20 04:13:45;;;;;;;1.77;1.67;;;19.60;99.90;;;;;;5006744;28;20021;-69
2022/08/20 04:16:11;;;;;;;2.72;1.98;;;19.60;99.90;;;;;;4989492;28;20037;-69
2022/08/20 04:18:36;;;;;;;1.90;1.80;;;19.60;99.90;;;;;;5009979;28;20033;-69
2022/08/20 04:21:04;;;;;;;2.40;1.48;;;19.60;99.90;;;;;;5011562;28;20037;-69
2022/08/20 04:23:30;;;;;;;2.67;1.70;;;19.70;99.90;;;;;;5010918;28;20434;-69
2022/08/20 04:25:56;;;;;;;1.80;1.70;;;19.70;99.90;;;;;;5016708;28;20025;-69
2022/08/20 04:28:23;;;;;;;1.88;1.60;;;19.60;99.90;;;;;;5010638;28;20104;-69
2022/08/20 04:30:51;;;;;;;2.78;1.70;;;19.60;99.90;;;;;;5011249;28;20034;-69
2022/08/20 04:33:17;;;;;;;2.42;2.22;;;19.60;99.90;;;;;;5011473;28;20048;-69
2022/08/20 04:35:43;;;;;;;2.60;2.20;;;19.70;99.90;;;;;;5010666;28;20579;-69
2022/08/20 04:38:13;;;;;;;2.05;1.83;;;19.70;99.90;;;;;;5011327;28;20037;-69
2022/08/20 04:40:57;;;;;;;3.28;2.10;;;19.60;99.90;;;;;;5010534;28;20046;-68
2022/08/20 04:43:34;;;;;;;2.10;2.00;;;19.70;99.90;;;;;;5008672;28;20161;-68
2022/08/20 04:46:04;;;;;;;2.00;1.90;;;19.50;99.90;;;;;;5018228;28;20104;-68
2022/08/20 04:48:32;;;;;;;3.00;2.30;;;19.40;99.90;;;;;;5010151;28;20026;-69
2022/08/20 04:50:58;;;;;;;2.92;2.67;;;19.20;99.90;;;;;;5011111;28;20036;-69
2022/08/20 04:53:26;;;;;;;4.63;2.90;;;18.90;99.90;;;;;;5010576;28;20029;-68
2022/08/20 04:55:54;;;;;;;3.47;3.17;;;18.70;99.90;;;;;;5011727;28;20025;-68
2022/08/20 04:58:32;;;;;;;4.22;2.95;;;18.50;99.90;;;;;;5009801;28;20065;-68
2022/08/20 05:01:02;;;;;;;5.13;3.70;;;18.30;99.90;;;;;;5008923;28;20056;-68
2022/08/20 05:03:29;;;;;;;5.78;3.40;;;18.20;99.90;;;;;;5010911;28;20058;-68
2022/08/20 05:05:55;;;;;;;4.40;3.30;;;18.20;99.90;;;;;;5012888;28;20092;-69
2022/08/20 05:08:22;;;;;;;3.85;3.42;;;18.10;99.90;;;;;;5014289;28;20113;-69
2022/08/20 05:10:48;;;;;;;4.53;3.25;;;18.10;99.90;;;;;;5013744;28;20026;-70
2022/08/20 05:13:15;;;;;;;4.32;3.88;;;18.10;99.90;;;;;;5014956;28;20037;-68
2022/08/20 05:15:40;;;;;;;3.97;3.50;;;18.10;99.90;;;;;;5014197;28;20040;-68
2022/08/20 05:18:07;;;;;;;6.57;3.55;;;18.20;99.90;;;;;;5013543;28;20022;-68
2022/08/20 05:20:38;;;;;;;5.35;3.45;;;18.20;99.90;;;;;;5014079;28;20042;-68
2022/08/20 05:23:05;;;;;;;4.05;3.70;;;18.20;99.90;;;;;;5013900;28;20445;-68
2022/08/20 05:25:31;;;;;;;4.32;3.92;;;18.20;99.90;;;;;;5014159;28;20585;-68
2022/08/20 05:28:08;;;;;;;3.83;3.53;;;18.20;99.90;;;;;;4997568;28;20112;-69
2022/08/20 05:30:38;;;;;;;3.65;3.35;;;18.20;99.90;;;;;;5013278;28;20092;-68
2022/08/20 05:33:05;;;;;;;3.85;3.55;;;18.20;99.90;;;;;;5014622;28;20052;-69
2022/08/20 05:35:37;;;;;;;5.05;3.67;;;18.20;99.90;;;;;;5011629;28;20074;-68
2022/08/20 05:38:04;;;;;;;5.50;4.70;;;18.20;99.90;;;;;;5014917;28;20030;-69
2022/08/20 05:40:30;;;;;;;4.32;4.00;;;18.20;99.90;;;;;;5014122;28;20065;-68
2022/08/20 05:42:56;;;;;;;4.35;3.95;;;18.20;99.90;;;;;;5015647;28;20111;-69
2022/08/20 05:45:22;;;;;;;4.53;4.03;;;18.20;99.90;;;;;;5019130;28;20029;-68
2022/08/20 05:47:48;;;;;;;5.72;3.88;;;18.20;99.90;;;;;;5013738;28;20468;-69
2022/08/20 05:50:15;;;;;;;4.10;3.50;;;18.30;99.90;;;;;;5013724;28;20026;-69
2022/08/20 05:52:41;;;;;;;3.63;3.33;;;18.30;99.90;;;;;;5011918;28;20030;-69
2022/08/20 05:55:11;;;;;;;6.55;3.92;;;18.30;99.90;;;;;;5014164;28;20033;-78
2022/08/20 05:57:38;;;;;;;6.10;3.70;;;18.30;99.90;;;;;;5013911;28;20038;-76
2022/08/20 06:00:07;;;;;;;4.45;4.05;;;18.40;99.90;;;;;;5014961;28;20129;-80
2022/08/20 06:05:18;;;;;;;4.43;4.03;;;18.50;99.90;;;;;;5008572;28;20157;-80
2022/08/20 06:07:44;;;;;;;6.30;4.00;;;18.60;99.90;;;;;;5013864;28;20037;-80
2022/08/20 06:10:10;;;;;;;4.82;3.58;;;18.70;99.90;;;;;;5013710;28;20109;-80
2022/08/20 06:12:36;;;;;;;4.07;3.78;;;18.90;99.90;;;;;;5012573;28;20109;-80
2022/08/20 06:15:04;;;;;;;4.00;3.60;;;19.00;99.90;;;;;;5014267;28;20030;-80
2022/08/20 06:17:32;;;;;;;3.47;3.17;;;19.20;99.90;;;;;;5012251;28;20029;-79
2022/08/20 06:20:00;;;;;;;5.18;3.58;;;19.30;99.90;;;;;;5014040;28;20029;-81
2022/08/20 06:22:25;;;;;;;3.30;3.00;;;19.50;99.90;;;;;;5013579;28;20041;-80
2022/08/20 06:24:51;;;;;;;3.20;2.90;;;19.70;99.90;;;;;;5014375;28;20025;-79
2022/08/20 06:27:18;;;;;;;4.57;3.55;;;19.80;99.90;;;;;;5013498;28;20095;-81
2022/08/20 06:29:43;;;;;;;3.42;3.13;;;19.90;99.90;;;;;;5011761;28;20030;-80
2022/08/20 06:32:09;;;;;;;5.10;3.03;;;20.00;99.90;;;;;;5021096;28;20080;-79
2022/08/20 06:34:35;;;;;;;3.17;2.88;;;20.10;99.90;;;;;;5010283;28;21477;-80
2022/08/20 06:37:01;;;;;;;5.20;3.25;;;20.20;99.90;;;;;;5013831;28;20033;-80
2022/08/20 06:39:30;;;;;;;3.53;3.17;;;20.20;99.90;;;;;;5016322;28;20030;-79
2022/08/20 06:41:57;;;;;;;5.25;2.85;;;20.30;99.90;;;;;;5007036;28;20026;-79
2022/08/20 06:44:23;;;;;;;3.78;3.40;;;20.30;99.90;;;;;;5018089;28;20026;-80
2022/08/20 06:46:49;;;;;;;3.38;2.88;;;20.40;99.90;;;;;;5000546;28;20037;-79
2022/08/20 06:49:14;;;;;;;3.35;3.05;;;20.50;99.90;;;;;;5017108;28;20030;-79
2022/08/20 06:51:40;;;;;;;4.05;3.13;;;20.50;99.90;;;;;;5004060;28;20774;-79
2022/08/20 06:54:06;;;;;;;3.67;3.38;;;20.60;99.90;;;;;;5003859;28;20108;-80
2022/08/20 06:56:32;;;;;;;4.38;2.58;;;20.60;99.90;;;;;;5013489;28;20112;-78
2022/08/20 06:58:58;;;;;;;3.08;2.88;;;20.70;99.90;;;;;;5019900;28;20040;-82
2022/08/20 07:01:24;;;;;;;3.30;3.00;;;20.70;99.90;;;;;;4991493;28;20406;-79
2022/08/20 07:03:50;;;;;;;3.30;2.78;;;20.80;99.90;;;;;;4986908;28;20480;-81
2022/08/20 07:06:17;;;;;;;3.42;3.13;;;20.80;99.90;;;;;;5017590;28;20046;-80
2022/08/20 07:08:43;;;;;;;4.15;3.10;;;20.90;99.90;;;;;;5006919;28;20497;-80
2022/08/20 07:11:11;;;;;;;4.13;2.72;;;20.90;99.90;;;;;;5014637;28;20041;-78
2022/08/20 07:13:36;;;;;;;3.55;3.00;;;20.90;99.90;;;;;;5014015;28;20026;-79
2022/08/20 07:16:04;;;;;;;2.83;2.55;;;21.10;99.90;;;;;;5011532;28;20045;-79
2022/08/20 07:18:30;;;;;;;3.17;2.83;;;21.00;99.90;;;;;;5008024;28;20108;-78
2022/08/20 07:20:56;;;;;;;3.42;2.80;;;21.00;99.90;;;;;;5016253;28;20045;-78
2022/08/20 07:23:23;;;;;;;3.80;2.75;;;21.10;99.90;;;;;;5016618;28;20037;-80
2022/08/20 07:25:49;;;;;;;3.22;2.92;;;21.00;99.90;;;;;;5012091;28;20246;-79
2022/08/20 07:28:18;;;;;;;3.03;2.83;;;21.00;99.90;;;;;;5018407;28;20091;-79
2022/08/20 07:33:30;;;;;;;2.80;2.60;;;21.00;99.90;;;;;;5014427;28;20497;-78
2022/08/20 07:35:58;;;;;;;2.90;2.58;;;21.10;99.90;;;;;;5020183;28;20041;-81
2022/08/20 07:38:25;;;;;;;2.85;2.58;;;21.20;99.90;;;;;;5021291;28;20026;-79
2022/08/20 07:40:57;;;;;;;3.30;2.50;;;21.40;99.90;;;;;;5019602;28;20072;-79
2022/08/20 07:43:23;;;;;;;3.53;3.00;;;21.50;99.90;;;;;;5021628;28;20034;-78
2022/08/20 07:45:50;;;;;;;3.35;2.92;;;21.70;99.90;;;;;;5030647;28;20069;-79
2022/08/20 07:48:16;;;;;;;3.22;2.92;;;21.90;99.90;;;;;;5034909;28;20117;-79
2022/08/20 07:50:42;;;;;;;5.55;3.78;;;22.00;99.90;;;;;;5035406;28;20013;-79
2022/08/20 07:53:10;;;;;;;5.68;3.67;;;22.20;99.90;;;;;;5035366;28;20056;-78
2022/08/20 07:55:36;;;;;;;3.50;3.20;;;22.30;99.90;;;;;;5030350;28;20038;-79
2022/08/20 07:58:11;;;;;;;4.10;3.20;;;22.50;99.90;;;;;;5031077;28;20042;-80
2022/08/20 08:00:38;;;;;;;4.20;3.05;;;22.50;99.90;;;;;;5017967;28;20117;-79
2022/08/20 08:03:04;;;;;;;5.75;3.30;;;22.60;99.90;;;;;;5003115;28;20033;-79
2022/08/20 08:05:33;;;;;;;4.03;2.95;;;22.70;99.90;;;;;;4991651;28;20037;-78
2022/08/20 08:07:59;;;;;;;5.00;2.95;;;22.80;99.90;;;;;;5015865;28;20033;-78
2022/08/20 08:10:26;;;;;;;4.53;3.65;;;22.80;99.90;;;;;;5007258;28;20029;-79
2022/08/20 08:12:57;;;;;;;3.95;3.40;;;22.90;99.90;;;;;;4995104;28;20037;-79
2022/08/20 08:15:32;;;;;;;4.00;2.75;;;23.00;99.90;;;;;;4997453;28;20030;-78
2022/08/20 08:18:06;;;;;;;4.05;2.95;;;23.10;99.90;;;;;;5020301;28;20039;-79
2022/08/20 08:20:37;;;;;;;3.97;2.80;;;23.20;99.90;;;;;;5015852;28;20037;-80
2022/08/20 08:23:03;;;;;;;3.10;2.70;;;23.30;99.90;;;;;;5018286;28;20044;-79
2022/08/20 08:25:31;;;;;;;2.97;2.78;;;23.30;99.90;;;;;;5011048;28;20030;-79
2022/08/20 08:27:59;;;;;;;4.60;2.58;;;23.30;99.90;;;;;;5013402;28;20092;-79
2022/08/20 08:30:27;;;;;;;4.50;3.03;;;23.30;99.90;;;;;;5011196;28;20058;-79
2022/08/20 08:35:38;;;;;;;3.40;3.10;;;23.30;99.90;;;;;;4999789;28;20390;-78
2022/08/20 08:38:04;;;;;;;3.97;2.60;;;23.50;99.90;;;;;;5014417;28;20462;-78
2022/08/20 08:40:30;;;;;;;3.97;2.58;;;23.70;99.90;;;;;;5013501;28;20181;-77
2022/08/20 08:42:59;;;;;;;4.05;2.70;;;23.90;99.90;;;;;;5016546;28;20026;-79
2022/08/20 08:45:37;;;;;;;3.55;2.83;;;24.00;99.90;;;;;;5010564;28;20030;-78
2022/08/20 08:48:04;;;;;;;4.55;2.88;;;24.10;99.90;;;;;;5030848;28;20177;-79
2022/08/20 08:50:33;;;;;;;3.00;2.80;;;24.20;99.90;;;;;;5021682;28;20041;-78
2022/08/20 08:53:01;;;;;;;3.35;2.80;;;24.30;99.90;;;;;;5001427;28;20076;-79
2022/08/20 08:55:29;;;;;;;3.08;2.50;;;24.30;99.90;;;;;;5025261;28;20399;-77
2022/08/20 08:57:58;;;;;;;2.95;2.60;;;24.20;99.90;;;;;;5014276;28;20022;-75
2022/08/20 09:00:27;;;;;;;4.32;3.50;;;24.10;99.90;;;;;;5010812;28;20153;-74
2022/08/20 09:03:09;;;;;;;3.35;3.05;;;23.90;99.90;;;;;;5013600;28;20113;-75
2022/08/20 09:05:44;;;;;;;3.08;2.80;;;23.80;99.90;;;;;;5007270;28;20021;-74
2022/08/20 09:08:14;;;;;;;2.85;2.58;;;23.70;99.90;;;;;;5013734;28;20407;-75
2022/08/20 09:10:41;;;;;;;4.05;2.70;;;23.70;99.90;;;;;;5012155;28;20115;-75
2022/08/20 09:13:07;;;;;;;3.25;2.55;;;23.60;99.90;;;;;;5017899;28;20500;-76
2022/08/20 09:15:34;;;;;;;2.67;2.47;;;23.50;99.90;;;;;;5014969;28;20053;-75
2022/08/20 09:18:00;;;;;;;2.55;2.35;;;23.50;99.90;;;;;;5014008;28;20747;-75
2022/08/20 09:20:26;;;;;;;4.32;2.50;;;23.60;99.90;;;;;;5016229;28;20035;-78
2022/08/20 09:22:52;;;;;;;3.55;2.35;;;23.60;99.90;;;;;;5000759;28;20379;-77
2022/08/20 09:25:18;;;;;;;2.75;2.55;;;23.60;99.90;;;;;;5017694;28;20180;-76
2022/08/20 09:27:44;;;;;;;4.07;2.83;;;23.80;99.90;;;;;;5020248;28;20022;-78
2022/08/20 09:30:12;;;;;;;4.72;2.60;;;23.80;99.90;;;;;;5012408;28;20034;-72
2022/08/20 09:32:38;;;;;;;2.85;2.65;;;23.80;99.90;;;;;;5009064;28;20030;-74
2022/08/20 09:35:04;;;;;;;2.47;2.25;;;23.90;99.90;;;;;;5015754;28;20022;-76
2022/08/20 09:37:31;;;;;;;2.10;2.00;;;23.80;99.90;;;;;;5013722;28;20035;-78
2022/08/20 09:39:57;;;;;;;2.63;2.30;;;23.90;99.90;;;;;;5007298;28;20033;-75
2022/08/20 09:42:29;;;;;;;1.80;1.70;;;24.00;99.90;;;;;;5019025;28;20116;-74
2022/08/20 09:44:56;;;;;;;2.88;1.90;;;24.10;99.90;;;;;;5014959;28;20389;-75
2022/08/20 09:47:22;;;;;;;1.83;1.60;;;24.20;99.90;;;;;;5022578;28;20026;-76
2022/08/20 09:49:47;;;;;;;1.60;1.40;;;24.30;99.90;;;;;;5018165;28;20032;-76
2022/08/20 09:52:24;;;;;;;4.30;1.50;;;24.40;99.90;;;;;;5018412;28;20025;-87
2022/08/20 09:54:53;;;;;;;1.52;1.42;;;24.40;99.90;;;;;;5013652;28;20053;-89
2022/08/20 09:57:20;;;;;;;4.68;1.38;;;24.40;99.90;;;;;;5021740;28;20034;-89
2022/08/20 09:59:51;;;;;;;1.42;1.30;;;24.50;99.90;;;;;;5016481;28;20026;-91
2022/08/20 10:02:17;;;;;;;1.88;1.42;;;24.70;99.90;;;;;;5012347;28;20061;-86
2022/08/20 10:04:43;;;;;;;1.42;1.23;;;24.70;99.90;;;;;;5005797;28;20066;-81
2022/08/20 10:07:09;;;;;;;1.77;1.55;;;24.80;99.90;;;;;;5012802;28;20453;-77
2022/08/20 10:09:36;;;;;;;1.42;1.33;;;24.80;99.90;;;;;;5008443;28;20029;-77
2022/08/20 10:12:02;;;;;;;1.75;1.60;;;24.70;99.90;;;;;;5016149;28;20132;-86
2022/08/20 10:14:29;;;;;;;2.72;1.52;;;24.80;99.90;;;;;;5018030;28;20463;-80
2022/08/20 10:16:57;;;;;;;3.15;1.17;;;24.80;99.90;;;;;;5013401;28;20026;-83
2022/08/20 10:19:23;;;;;;;1.08;1.02;;;24.70;99.90;;;;;;5005414;28;20280;-87
2022/08/20 10:21:51;;;;;;;0.90;0.90;;;24.60;99.90;;;;;;5002248;28;20510;-86
2022/08/20 10:24:17;;;;;;;2.92;1.30;;;24.60;99.90;;;;;;4997653;28;20034;-81
2022/08/20 10:26:43;;;;;;;3.45;1.27;;;24.60;99.90;;;;;;4998908;28;20745;-89
2022/08/20 10:29:08;;;;;;;1.95;1.25;;;24.60;99.90;;;;;;4996963;28;20034;-77
2022/08/20 10:31:34;;;;;;;2.85;1.20;;;24.80;99.90;;;;;;5012056;28;20489;-75
2022/08/20 10:34:00;;;;;;;1.50;1.40;;;25.00;99.90;;;;;;5006770;28;20106;-74
2022/08/20 10:36:25;;;;;;;1.20;0.98;;;25.00;99.90;;;;;;5011070;28;20172;-74
2022/08/20 10:38:51;;;;;;;0.70;0.70;;;25.10;99.90;;;;;;5002104;28;20525;-72
2022/08/20 10:41:16;;;;;;;0.60;0.60;;;25.10;99.90;;;;;;5009146;28;20034;-73
2022/08/20 10:43:42;;;;;;;0.60;0.57;;;24.90;99.90;;;;;;5010824;28;20033;-73
2022/08/20 10:46:08;;;;;;;1.35;0.60;;;24.90;99.90;;;;;;5015942;28;20041;-74
2022/08/20 10:48:34;;;;;;;1.73;0.70;;;24.80;99.90;;;;;;5012123;28;20033;-73
2022/08/20 10:50:59;;;;;;;0.70;0.70;;;24.90;99.90;;;;;;5011686;28;20040;-75
2022/08/20 10:53:25;;;;;;;1.17;0.70;;;24.90;99.90;;;;;;4994602;28;20045;-76
2022/08/20 10:55:53;;;;;;;0.88;0.60;;;25.00;99.90;;;;;;5012015;28;20033;-75
2022/08/20 10:58:18;;;;;;;1.25;0.77;;;25.00;99.90;;;;;;5011941;28;20389;-75
2022/08/20 11:00:45;;;;;;;0.50;0.50;;;24.90;99.90;;;;;;5011721;28;20049;-75
2022/08/20 11:03:11;;;;;;;1.00;1.00;;;24.80;99.90;;;;;;5008295;28;20070;-75
2022/08/20 11:05:37;;;;;;;2.05;0.95;;;24.60;99.90;;;;;;5006802;28;20108;-75
2022/08/20 11:08:04;;;;;;;0.95;0.88;;;24.40;99.90;;;;;;5005350;28;20033;-76
2022/08/20 11:10:34;;;;;;;0.60;0.60;;;24.20;99.90;;;;;;5007776;28;20030;-74
2022/08/20 11:13:05;;;;;;;1.40;0.90;;;24.10;99.90;;;;;;5007594;28;20112;-74
2022/08/20 11:15:34;;;;;;;0.73;0.73;;;24.00;99.90;;;;;;4999069;28;20061;-75
2022/08/20 11:17:59;;;;;;;1.25;0.80;;;23.90;99.90;;;;;;5008600;28;20136;-76
2022/08/20 11:20:25;;;;;;;0.65;0.65;;;23.90;99.90;;;;;;5003950;28;20164;-76
2022/08/20 11:22:52;;;;;;;0.40;0.40;;;23.90;99.90;;;;;;5005933;28;20029;-76
2022/08/20 11:25:19;;;;;;;0.68;0.52;;;23.90;99.90;;;;;;5004105;28;20026;-75
2022/08/20 11:27:47;;;;;;;0.60;0.60;;;24.00;99.90;;;;;;5010196;28;20501;-77
2022/08/20 11:30:28;;;;;;;0.75;0.52;;;24.00;99.90;;;;;;5008342;28;20038;-76
2022/08/20 11:32:54;;;;;;;0.93;0.60;;;24.20;99.90;;;;;;5001410;28;20061;-76
2022/08/20 11:35:22;;;;;;;1.45;0.63;;;24.20;99.90;;;;;;5004641;28;20221;-77
2022/08/20 11:37:50;;;;;;;0.50;0.50;;;24.20;99.90;;;;;;5001112;28;20026;-80
2022/08/20 11:40:16;;;;;;;0.77;0.52;;;24.20;99.90;;;;;;5009193;28;20034;-80
2022/08/20 11:42:41;;;;;;;0.38;0.38;;;24.30;99.90;;;;;;5010657;28;20137;-79
2022/08/20 11:45:07;;;;;;;0.60;0.40;;;24.30;99.90;;;;;;4999684;28;20108;-76
2022/08/20 11:47:34;;;;;;;0.60;0.55;;;24.30;99.40;;;;;;5006150;28;20050;-78
2022/08/20 11:50:06;;;;;;;0.80;0.50;;;24.30;99.60;;;;;;5004915;28;20453;-77
2022/08/20 11:52:32;;;;;;;0.63;0.60;;;24.40;99.50;;;;;;5006911;28;20030;-76
2022/08/20 11:54:58;;;;;;;0.73;0.60;;;24.40;99.50;;;;;;5006716;28;20037;-76
2022/08/20 11:57:27;;;;;;;0.50;0.50;;;24.30;99.70;;;;;;5009162;28;20033;-76
2022/08/20 11:59:55;;;;;;;0.55;0.50;;;24.30;99.80;;;;;;5003241;28;20120;-76
2022/08/20 12:02:21;;;;;;;0.75;0.40;;;24.30;99.90;;;;;;5009531;28;20046;-78
2022/08/20 12:04:48;;;;;;;0.50;0.50;;;24.30;99.90;;;;;;5005650;28;20192;-75
2022/08/20 12:07:16;;;;;;;0.50;0.47;;;24.30;99.90;;;;;;5007132;28;20038;-76
2022/08/20 12:09:43;;;;;;;0.60;0.60;;;24.30;99.90;;;;;;5005148;28;20033;-77
2022/08/20 12:12:09;;;;;;;1.88;0.90;;;24.40;99.90;;;;;;5004692;28;20133;-77
2022/08/20 12:14:35;;;;;;;0.75;0.75;;;24.40;99.90;;;;;;5007014;28;20054;-76
2022/08/20 12:17:13;;;;;;;0.50;0.50;;;24.50;99.90;;;;;;5003201;28;20060;-77
2022/08/20 12:19:40;;;;;;;0.80;0.73;;;24.50;99.90;;;;;;5005004;28;20025;-75
2022/08/20 12:22:07;;;;;;;1.13;0.60;;;24.50;99.90;;;;;;5006477;28;20038;-76
2022/08/20 12:24:33;;;;;;;0.90;0.60;;;24.60;99.90;;;;;;5003264;28;20549;-77
2022/08/20 12:27:17;;;;;;;0.70;0.50;;;24.50;99.80;;;;;;5006900;28;20049;-76
2022/08/20 12:29:44;;;;;;;0.60;0.60;;;24.50;99.20;;;;;;5004605;28;20026;-76
2022/08/20 12:32:11;;;;;;;0.50;0.50;;;24.50;99.20;;;;;;5006124;28;20120;-77
2022/08/20 12:34:39;;;;;;;0.57;0.57;;;24.60;99.20;;;;;;5004704;28;20521;-77
2022/08/20 12:37:10;;;;;;;0.50;0.50;;;24.70;99.20;;;;;;5003341;28;20030;-76
2022/08/20 12:39:41;;;;;;;1.58;0.52;;;24.80;98.90;;;;;;5001203;28;20054;-76
2022/08/20 12:42:09;;;;;;;0.60;0.60;;;24.90;99.10;;;;;;5007369;28;20040;-77
2022/08/20 12:44:35;;;;;;;1.50;0.70;;;25.00;98.90;;;;;;5006404;28;20538;-75
2022/08/20 12:47:18;;;;;;;0.63;0.50;;;25.20;98.80;;;;;;5004804;28;20565;-77
2022/08/20 12:49:47;;;;;;;0.63;0.63;;;25.30;98.60;;;;;;5006070;28;20068;-76
2022/08/20 12:52:14;;;;;;;0.73;0.73;;;25.40;98.60;;;;;;5007807;28;20117;-75
2022/08/20 12:54:40;;;;;;;0.80;0.80;;;25.30;98.50;;;;;;5005890;28;20030;-77
2022/08/20 12:57:11;;;;;;;0.52;0.52;;;25.30;98.70;;;;;;5007210;28;20522;-77
2022/08/20 12:59:37;;;;;;;2.72;0.80;;;25.30;98.60;;;;;;5006209;28;20029;-77